Time;durP1;ratioP1;P1;durP2;ratioP2;P2;SDS_P1;SDS_P2;PMS_P1;PMS_P2;Temp;Humidity;BMP_temperature;BMP_pressure;BME280_temperature;BME280_humidity;BME280_pressure;Samples;Min_cycle;Max_cycle;Signal;HPM_P1;HPM_P2
2023/09/10 00:02:04;;;;;;;17.15;10.23;;;22.90;75.10;;;;;;5007347;28;20034;-67
2023/09/10 00:04:32;;;;;;;12.77;9.73;;;22.90;75.10;;;;;;5003502;28;20037;-67
2023/09/10 00:06:58;;;;;;;14.23;10.27;;;22.90;75.20;;;;;;5007967;28;20034;-66
2023/09/10 00:09:24;;;;;;;13.82;10.18;;;22.90;75.30;;;;;;5008723;28;20037;-66
2023/09/10 00:11:51;;;;;;;14.52;9.93;;;22.90;75.30;;;;;;5014241;28;20152;-68
2023/09/10 00:14:18;;;;;;;13.00;9.50;;;22.90;75.40;;;;;;5007257;28;20030;-67
2023/09/10 00:16:44;;;;;;;12.85;9.48;;;22.90;75.40;;;;;;5007839;28;20053;-67
2023/09/10 00:19:12;;;;;;;15.38;10.60;;;22.90;75.50;;;;;;5010202;28;20026;-67
2023/09/10 00:21:38;;;;;;;16.00;10.82;;;22.90;75.50;;;;;;5009502;28;20034;-67
2023/09/10 00:24:05;;;;;;;13.40;10.25;;;22.90;75.50;;;;;;5015562;28;20045;-67
2023/09/10 00:26:31;;;;;;;13.77;10.65;;;22.90;75.60;;;;;;5008704;28;20466;-68
2023/09/10 00:28:57;;;;;;;14.75;10.30;;;22.90;75.70;;;;;;5016368;28;20092;-67
2023/09/10 00:31:23;;;;;;;15.75;10.23;;;22.90;75.70;;;;;;5017872;28;20026;-67
2023/09/10 00:33:49;;;;;;;14.32;10.38;;;22.90;75.70;;;;;;5009378;28;20042;-67
2023/09/10 00:36:16;;;;;;;14.18;9.85;;;22.90;75.70;;;;;;5006513;28;20038;-66
2023/09/10 00:38:42;;;;;;;13.00;9.38;;;22.90;75.80;;;;;;5014366;28;20041;-66
2023/09/10 00:41:08;;;;;;;13.35;9.15;;;22.90;75.80;;;;;;5008863;28;20319;-66
2023/09/10 00:43:35;;;;;;;13.23;10.43;;;22.90;75.90;;;;;;5005047;28;20073;-67
2023/09/10 00:46:02;;;;;;;13.50;8.93;;;22.90;75.90;;;;;;5003575;28;20022;-66
2023/09/10 00:48:28;;;;;;;11.82;9.57;;;22.80;75.80;;;;;;5018365;28;20444;-66
2023/09/10 00:50:54;;;;;;;13.07;9.73;;;22.80;75.80;;;;;;5021906;28;20583;-66
2023/09/10 00:53:22;;;;;;;14.65;10.73;;;22.80;75.90;;;;;;5008905;28;20478;-66
2023/09/10 00:55:49;;;;;;;14.68;10.07;;;22.80;75.90;;;;;;5011993;28;20053;-66
2023/09/10 00:58:15;;;;;;;15.13;11.68;;;22.80;76.00;;;;;;5020516;28;20037;-66
2023/09/10 01:00:46;;;;;;;13.45;10.55;;;22.80;76.00;;;;;;5012047;28;20075;-66
2023/09/10 01:03:13;;;;;;;17.02;11.48;;;22.80;76.10;;;;;;5005903;28;20058;-66
2023/09/10 01:05:39;;;;;;;15.38;10.57;;;22.80;76.20;;;;;;5013504;28;20063;-67
2023/09/10 01:08:06;;;;;;;14.32;10.77;;;22.80;76.20;;;;;;5016294;28;20049;-68
2023/09/10 01:11:08;;;;;;;15.25;11.18;;;22.80;76.20;;;;;;5014657;28;20057;-68
2023/09/10 01:13:55;;;;;;;16.23;10.50;;;22.80;76.40;;;;;;5035605;28;20073;-68
2023/09/10 01:16:30;;;;;;;15.57;10.90;;;22.80;76.30;;;;;;5010307;28;20068;-68
2023/09/10 01:19:12;;;;;;;14.13;10.32;;;22.80;76.30;;;;;;5019285;28;20060;-67
2023/09/10 01:21:48;;;;;;;15.07;10.60;;;22.80;76.30;;;;;;5007871;28;20272;-67
2023/09/10 01:24:49;;;;;;;15.18;10.85;;;22.80;76.40;;;;;;5032138;28;20694;-68
2023/09/10 01:27:16;;;;;;;12.80;9.95;;;22.80;76.60;;;;;;5012835;28;20360;-68
2023/09/10 01:29:43;;;;;;;12.27;10.30;;;22.80;76.40;;;;;;5006959;28;20080;-67
2023/09/10 01:32:21;;;;;;;13.45;10.68;;;22.80;76.50;;;;;;5016793;28;20037;-67
2023/09/10 01:35:22;;;;;;;11.98;10.40;;;22.80;76.70;;;;;;5009902;28;20040;-68
2023/09/10 01:38:01;;;;;;;14.40;10.55;;;22.80;76.70;;;;;;5016116;28;20037;-66
2023/09/10 01:41:01;;;;;;;12.38;11.07;;;22.80;76.70;;;;;;5014056;28;20482;-68
2023/09/10 01:43:29;;;;;;;14.27;10.80;;;22.80;76.80;;;;;;5013091;28;20022;-66
2023/09/10 01:45:55;;;;;;;12.48;9.82;;;22.80;76.70;;;;;;5010894;28;20040;-67
2023/09/10 01:48:23;;;;;;;16.08;10.20;;;22.80;76.70;;;;;;5015048;28;20053;-66
2023/09/10 01:50:49;;;;;;;18.75;12.23;;;22.80;76.80;;;;;;5008602;28;20061;-66
2023/09/10 01:53:16;;;;;;;16.33;11.13;;;22.80;76.90;;;;;;5010687;28;20136;-67
2023/09/10 01:55:43;;;;;;;13.13;11.68;;;22.70;76.70;;;;;;5013490;28;20037;-66
2023/09/10 01:58:12;;;;;;;22.52;12.85;;;22.70;76.80;;;;;;5021424;28;20029;-67
2023/09/10 02:00:39;;;;;;;14.95;11.63;;;22.70;76.80;;;;;;5010154;28;20549;-67
2023/09/10 02:03:05;;;;;;;14.45;10.57;;;22.70;76.80;;;;;;5012009;28;20041;-66
2023/09/10 02:05:32;;;;;;;15.85;10.75;;;22.70;76.90;;;;;;5016941;28;20635;-68
2023/09/10 02:07:58;;;;;;;18.17;11.65;;;22.70;76.90;;;;;;5010281;28;20033;-66
2023/09/10 02:10:24;;;;;;;16.00;10.88;;;22.70;76.90;;;;;;5008031;28;20037;-66
2023/09/10 02:12:50;;;;;;;16.65;11.73;;;22.70;77.00;;;;;;5016152;28;20121;-68
2023/09/10 02:15:17;;;;;;;15.02;11.18;;;22.70;77.10;;;;;;5006437;28;20136;-67
2023/09/10 02:17:43;;;;;;;18.08;11.45;;;22.60;76.90;;;;;;5012285;28;20395;-67
2023/09/10 02:20:10;;;;;;;18.55;11.98;;;22.70;77.20;;;;;;5012003;28;20038;-67
2023/09/10 02:22:37;;;;;;;12.38;11.00;;;22.60;77.00;;;;;;5012616;28;20215;-68
2023/09/10 02:25:04;;;;;;;13.30;10.65;;;22.70;77.30;;;;;;5013485;28;20265;-68
2023/09/10 02:27:31;;;;;;;17.30;10.68;;;22.70;77.30;;;;;;5009579;28;20093;-68
2023/09/10 02:29:57;;;;;;;12.80;9.55;;;22.60;77.20;;;;;;5011802;28;20091;-67
2023/09/10 02:32:24;;;;;;;14.73;10.40;;;22.70;77.40;;;;;;5011604;28;20026;-67
2023/09/10 02:34:53;;;;;;;13.65;10.75;;;22.60;77.30;;;;;;5010494;28;20432;-67
2023/09/10 02:37:19;;;;;;;12.88;10.32;;;22.60;77.40;;;;;;5010884;28;20061;-67
2023/09/10 02:39:46;;;;;;;12.32;11.07;;;22.60;77.40;;;;;;5008356;28;20045;-67
2023/09/10 02:42:12;;;;;;;18.40;10.73;;;22.60;77.50;;;;;;5020603;28;20036;-68
2023/09/10 02:44:39;;;;;;;13.15;10.73;;;22.60;77.50;;;;;;5004477;28;20107;-67
2023/09/10 02:47:05;;;;;;;15.88;10.63;;;22.60;77.60;;;;;;5004551;28;20490;-66
2023/09/10 02:49:32;;;;;;;13.23;10.35;;;22.60;77.60;;;;;;5010507;28;20041;-66
2023/09/10 02:51:59;;;;;;;13.50;9.82;;;22.60;78.00;;;;;;5007717;28;20057;-68
2023/09/10 02:54:25;;;;;;;15.55;11.90;;;22.60;77.70;;;;;;5011187;28;20044;-68
2023/09/10 02:56:51;;;;;;;13.65;10.90;;;22.60;77.80;;;;;;5009919;28;20335;-67
2023/09/10 02:59:23;;;;;;;12.68;10.18;;;22.60;77.80;;;;;;5012641;28;20292;-67
2023/09/10 03:01:49;;;;;;;14.65;10.07;;;22.60;77.90;;;;;;5017531;28;20030;-67
2023/09/10 03:04:15;;;;;;;17.83;11.43;;;22.60;77.90;;;;;;5012153;28;20155;-67
2023/09/10 03:06:46;;;;;;;15.02;10.93;;;22.60;77.90;;;;;;5015775;28;20033;-67
2023/09/10 03:09:13;;;;;;;12.70;11.10;;;22.50;77.80;;;;;;5010871;28;20041;-68
2023/09/10 03:11:41;;;;;;;17.23;11.10;;;22.60;78.00;;;;;;5013784;28;20056;-67
2023/09/10 03:14:08;;;;;;;16.75;11.57;;;22.50;77.90;;;;;;5013618;28;20045;-67
2023/09/10 03:16:40;;;;;;;15.30;11.60;;;22.50;77.90;;;;;;5004593;28;20029;-68
2023/09/10 03:19:07;;;;;;;;;;;22.50;77.90;;;;;;5010283;28;20298;-67
2023/09/10 03:21:36;;;;;;;17.08;10.63;;;22.50;77.90;;;;;;5012373;28;19915;-70
2023/09/10 03:24:03;;;;;;;14.65;10.10;;;22.50;77.80;;;;;;5012375;28;20045;-67
2023/09/10 03:26:29;;;;;;;15.00;11.30;;;22.50;77.90;;;;;;5006612;28;20037;-67
2023/09/10 03:28:55;;;;;;;14.88;10.55;;;22.40;77.80;;;;;;5011885;28;20040;-68
2023/09/10 03:31:21;;;;;;;12.30;10.55;;;22.50;78.10;;;;;;5013317;28;20034;-68
2023/09/10 03:33:48;;;;;;;14.23;9.77;;;22.50;78.20;;;;;;5012950;28;20121;-67
2023/09/10 03:36:15;;;;;;;15.13;10.50;;;22.40;78.20;;;;;;5005223;28;20038;-67
2023/09/10 03:38:41;;;;;;;15.50;10.95;;;22.40;78.20;;;;;;5015195;28;20599;-68
2023/09/10 03:41:07;;;;;;;11.82;9.63;;;22.50;78.50;;;;;;5014792;28;20033;-67
2023/09/10 03:43:33;;;;;;;16.67;10.43;;;22.40;78.40;;;;;;5003315;28;20037;-68
2023/09/10 03:46:00;;;;;;;15.18;11.38;;;22.40;78.50;;;;;;4985705;28;20310;-68
2023/09/10 03:48:26;;;;;;;16.60;10.38;;;22.40;78.60;;;;;;5017379;28;20057;-67
2023/09/10 03:50:52;;;;;;;14.70;10.02;;;22.40;78.60;;;;;;5006728;28;20049;-67
2023/09/10 03:53:18;;;;;;;14.52;11.05;;;22.40;78.70;;;;;;5008621;28;20045;-67
2023/09/10 03:55:45;;;;;;;11.52;9.90;;;22.40;78.70;;;;;;5010924;28;20049;-68
2023/09/10 03:58:11;;;;;;;20.98;12.15;;;22.40;78.70;;;;;;5018677;28;20087;-67
2023/09/10 04:00:37;;;;;;;12.13;10.48;;;22.40;78.80;;;;;;5008704;28;20033;-67
2023/09/10 04:03:04;;;;;;;12.75;9.75;;;22.40;78.80;;;;;;5005237;28;20048;-67
2023/09/10 04:05:30;;;;;;;14.93;10.00;;;22.40;78.80;;;;;;5006905;28;20083;-68
2023/09/10 04:07:56;;;;;;;12.73;10.75;;;22.40;78.80;;;;;;5015693;28;20303;-67
2023/09/10 04:10:23;;;;;;;13.15;10.23;;;22.50;79.10;;;;;;5009809;28;20283;-67
2023/09/10 04:12:50;;;;;;;16.40;11.60;;;22.40;78.90;;;;;;5010389;28;20030;-67
2023/09/10 04:15:17;;;;;;;14.77;11.18;;;22.50;79.10;;;;;;5009877;28;20498;-65
2023/09/10 04:17:43;;;;;;;10.82;9.65;;;22.50;79.10;;;;;;5012056;28;20103;-67
2023/09/10 04:20:09;;;;;;;11.90;10.75;;;22.50;79.20;;;;;;5012784;28;20041;-67
2023/09/10 04:22:35;;;;;;;12.48;11.18;;;22.40;79.10;;;;;;5008930;28;20437;-68
2023/09/10 04:25:02;;;;;;;12.82;10.52;;;22.40;79.10;;;;;;5012557;28;20045;-68
2023/09/10 04:27:28;;;;;;;13.95;10.80;;;22.40;79.10;;;;;;5009248;28;20061;-68
2023/09/10 04:29:54;;;;;;;17.63;11.88;;;22.40;79.20;;;;;;4995431;28;20064;-68
2023/09/10 04:32:20;;;;;;;14.18;11.82;;;22.40;79.20;;;;;;5016815;28;20029;-69
2023/09/10 04:34:46;;;;;;;18.35;12.80;;;22.40;79.30;;;;;;5008643;28;20079;-68
2023/09/10 04:37:13;;;;;;;12.65;11.35;;;22.40;79.30;;;;;;5010408;28;20501;-68
2023/09/10 04:39:39;;;;;;;18.75;11.73;;;22.40;79.40;;;;;;5005513;28;20060;-69
2023/09/10 04:42:05;;;;;;;12.95;10.85;;;22.40;79.40;;;;;;5004425;28;20540;-68
2023/09/10 04:44:31;;;;;;;14.52;12.07;;;22.40;79.40;;;;;;5003238;28;20038;-69
2023/09/10 04:46:57;;;;;;;13.82;11.00;;;22.40;79.50;;;;;;5009398;28;20044;-69
2023/09/10 04:49:23;;;;;;;14.85;12.23;;;22.40;79.50;;;;;;5023001;28;20057;-68
2023/09/10 04:51:50;;;;;;;17.80;12.50;;;22.30;79.40;;;;;;5018595;28;20607;-68
2023/09/10 04:54:16;;;;;;;16.33;11.82;;;22.30;79.60;;;;;;5020327;28;20090;-67
2023/09/10 04:56:42;;;;;;;15.85;11.55;;;22.40;79.80;;;;;;5002335;28;20037;-68
2023/09/10 04:59:08;;;;;;;14.70;11.80;;;22.30;79.80;;;;;;5017253;28;20095;-68
2023/09/10 05:01:34;;;;;;;17.55;12.10;;;22.30;79.80;;;;;;5013329;28;20072;-68
2023/09/10 05:04:00;;;;;;;12.70;11.35;;;22.30;79.90;;;;;;5020335;28;20152;-68
2023/09/10 05:06:26;;;;;;;21.58;12.05;;;22.30;80.00;;;;;;5022294;28;20144;-68
2023/09/10 05:08:52;;;;;;;16.45;12.50;;;22.30;80.00;;;;;;5013938;28;20113;-69
2023/09/10 05:11:18;;;;;;;13.13;11.05;;;22.30;80.10;;;;;;5024683;28;20033;-69
2023/09/10 05:13:44;;;;;;;11.75;10.40;;;22.30;80.10;;;;;;5019298;28;20331;-68
2023/09/10 05:16:11;;;;;;;14.95;10.52;;;22.20;80.00;;;;;;5021953;28;20100;-69
2023/09/10 05:18:37;;;;;;;15.23;11.57;;;22.30;80.10;;;;;;5018943;28;20135;-69
2023/09/10 05:21:03;;;;;;;12.90;10.93;;;22.30;80.20;;;;;;5017749;28;20025;-68
2023/09/10 05:23:34;;;;;;;12.07;9.70;;;22.20;80.10;;;;;;5025746;28;20044;-68
2023/09/10 05:26:03;;;;;;;10.95;9.20;;;22.20;80.10;;;;;;5020462;28;20388;-68
2023/09/10 05:28:30;;;;;;;10.35;9.35;;;22.20;80.20;;;;;;5016662;28;20069;-68
2023/09/10 05:30:56;;;;;;;11.05;9.85;;;22.20;80.20;;;;;;5023675;28;20131;-68
2023/09/10 05:33:23;;;;;;;9.85;8.60;;;22.20;80.20;;;;;;5013979;28;20033;-69
2023/09/10 05:35:57;;;;;;;11.75;8.70;;;22.20;80.20;;;;;;5020161;28;20381;-68
2023/09/10 05:38:25;;;;;;;10.52;9.35;;;22.20;80.40;;;;;;5016845;28;20394;-67
2023/09/10 05:40:51;;;;;;;11.32;9.75;;;22.20;80.30;;;;;;5026624;28;20043;-66
2023/09/10 05:43:18;;;;;;;11.30;8.13;;;22.20;80.40;;;;;;5011057;28;20105;-67
2023/09/10 05:45:46;;;;;;;10.07;8.80;;;22.20;80.40;;;;;;5013560;28;20397;-66
2023/09/10 05:48:12;;;;;;;10.43;8.88;;;22.10;80.30;;;;;;5010656;28;20501;-66
2023/09/10 05:50:40;;;;;;;8.88;8.00;;;22.10;80.30;;;;;;5010792;28;20072;-66
2023/09/10 05:53:06;;;;;;;9.23;8.38;;;22.20;80.50;;;;;;5012513;28;20033;-67
2023/09/10 05:55:37;;;;;;;10.48;8.45;;;22.10;80.30;;;;;;5011150;28;20029;-67
2023/09/10 05:58:04;;;;;;;11.43;10.07;;;22.20;80.50;;;;;;5012232;28;20069;-66
2023/09/10 06:00:30;;;;;;;13.00;9.30;;;22.10;80.30;;;;;;5016370;28;20287;-66
2023/09/10 06:02:56;;;;;;;15.98;9.75;;;22.10;80.30;;;;;;5010555;28;20711;-67
2023/09/10 06:05:22;;;;;;;12.68;9.70;;;22.10;80.40;;;;;;5008402;28;20558;-66
2023/09/10 06:07:48;;;;;;;12.88;10.35;;;22.20;80.50;;;;;;5017981;28;20045;-67
2023/09/10 06:10:17;;;;;;;12.30;9.18;;;22.20;80.50;;;;;;5012920;28;20037;-67
2023/09/10 06:12:43;;;;;;;11.40;8.35;;;22.20;80.50;;;;;;5007433;28;20464;-66
2023/09/10 06:15:09;;;;;;;9.55;8.45;;;22.20;80.40;;;;;;5013138;28;20190;-66
2023/09/10 06:17:36;;;;;;;12.93;9.02;;;22.20;80.40;;;;;;5034921;28;20072;-66
2023/09/10 06:20:04;;;;;;;13.40;8.35;;;22.20;80.30;;;;;;5005718;28;20034;-68
2023/09/10 06:22:30;;;;;;;9.98;8.40;;;22.30;80.50;;;;;;5011422;28;20493;-67
2023/09/10 06:24:56;;;;;;;10.30;7.95;;;22.30;80.50;;;;;;5011296;28;20094;-67
2023/09/10 06:27:23;;;;;;;11.30;8.43;;;22.30;80.40;;;;;;5012080;28;20088;-67
2023/09/10 06:29:49;;;;;;;10.50;7.75;;;22.40;80.60;;;;;;5005134;28;20036;-67
2023/09/10 06:32:15;;;;;;;8.45;7.55;;;22.30;80.60;;;;;;5012747;28;20040;-67
2023/09/10 06:34:41;;;;;;;11.43;8.20;;;22.40;80.50;;;;;;5016642;28;20056;-67
2023/09/10 06:37:08;;;;;;;12.38;7.55;;;22.40;80.50;;;;;;5013960;28;20037;-67
2023/09/10 06:39:38;;;;;;;8.30;7.32;;;22.40;80.50;;;;;;5012980;28;20033;-67
2023/09/10 06:42:09;;;;;;;16.88;8.07;;;22.40;80.50;;;;;;5014236;28;20041;-67
2023/09/10 06:44:43;;;;;;;10.05;7.43;;;22.40;80.40;;;;;;5007268;28;20068;-67
2023/09/10 06:47:10;;;;;;;7.80;7.10;;;22.40;80.40;;;;;;5002807;28;20029;-67
2023/09/10 06:49:41;;;;;;;8.35;7.43;;;22.40;80.30;;;;;;5013886;28;20048;-66
2023/09/10 06:52:08;;;;;;;8.90;7.10;;;22.50;80.50;;;;;;5015776;28;20506;-66
2023/09/10 06:54:34;;;;;;;10.82;7.35;;;22.50;80.50;;;;;;5014283;28;20034;-68
2023/09/10 06:57:03;;;;;;;10.07;7.65;;;22.50;80.50;;;;;;5013346;28;20101;-67
2023/09/10 06:59:29;;;;;;;8.27;7.45;;;22.60;80.60;;;;;;5017985;28;20033;-68
2023/09/10 07:01:58;;;;;;;10.40;7.43;;;22.60;80.60;;;;;;5012588;28;20029;-68
2023/09/10 07:04:25;;;;;;;9.93;7.82;;;22.60;80.50;;;;;;5021972;28;20120;-68
2023/09/10 07:06:52;;;;;;;7.47;6.57;;;22.70;80.60;;;;;;5018074;28;20312;-68
2023/09/10 07:09:21;;;;;;;9.27;7.57;;;22.80;80.70;;;;;;5016269;28;20052;-67
2023/09/10 07:11:49;;;;;;;8.95;6.88;;;22.80;80.50;;;;;;5014650;28;20278;-68
2023/09/10 07:14:15;;;;;;;8.45;6.88;;;22.90;80.70;;;;;;5010751;28;20156;-68
2023/09/10 07:16:41;;;;;;;9.40;7.60;;;22.90;80.50;;;;;;5009126;28;20121;-68
2023/09/10 07:19:07;;;;;;;9.20;7.13;;;23.00;80.70;;;;;;5023007;28;20033;-67
2023/09/10 07:21:37;;;;;;;7.85;6.88;;;23.00;80.60;;;;;;5017532;28;20038;-68
2023/09/10 07:24:06;;;;;;;14.57;11.43;;;23.00;80.50;;;;;;5020789;28;20128;-68
2023/09/10 07:26:45;;;;;;;16.85;12.00;;;23.10;80.70;;;;;;5022790;28;20033;-68
2023/09/10 07:29:15;;;;;;;10.70;9.57;;;23.10;80.60;;;;;;5025431;28;20111;-68
2023/09/10 07:31:42;;;;;;;13.02;10.25;;;23.20;80.70;;;;;;5007460;28;20056;-69
2023/09/10 07:34:11;;;;;;;13.30;10.23;;;23.20;80.70;;;;;;5007168;28;20064;-67
2023/09/10 07:36:38;;;;;;;12.68;10.35;;;23.30;80.70;;;;;;5009679;28;20021;-68
2023/09/10 07:39:05;;;;;;;9.65;8.65;;;23.40;80.80;;;;;;5027972;28;20029;-68
2023/09/10 07:41:32;;;;;;;12.85;9.73;;;23.40;80.70;;;;;;5019687;28;20132;-68
2023/09/10 07:44:01;;;;;;;13.88;10.45;;;23.50;80.80;;;;;;5017311;28;20056;-67
2023/09/10 07:46:28;;;;;;;11.00;9.65;;;23.60;80.80;;;;;;5012366;28;20044;-68
2023/09/10 07:48:54;;;;;;;11.68;9.60;;;23.60;80.70;;;;;;5018574;28;20091;-67
2023/09/10 07:51:21;;;;;;;10.30;8.98;;;23.70;80.80;;;;;;5007853;28;20554;-67
2023/09/10 07:53:47;;;;;;;10.25;8.93;;;23.80;80.90;;;;;;5007573;28;20076;-67
2023/09/10 07:56:13;;;;;;;11.55;8.80;;;23.90;80.90;;;;;;5011314;28;20029;-68
2023/09/10 07:58:39;;;;;;;11.38;9.32;;;24.00;80.80;;;;;;5010689;28;20397;-67
2023/09/10 08:01:05;;;;;;;10.77;8.82;;;24.10;80.70;;;;;;5010992;28;20543;-68
2023/09/10 08:03:32;;;;;;;10.35;9.25;;;24.30;80.70;;;;;;5006237;28;20112;-68
2023/09/10 08:05:58;;;;;;;9.85;8.80;;;24.40;80.60;;;;;;5010223;28;20644;-68
2023/09/10 08:08:26;;;;;;;12.55;9.35;;;24.50;80.50;;;;;;5004900;28;20099;-68
2023/09/10 08:10:52;;;;;;;12.00;8.35;;;24.60;80.40;;;;;;5011413;28;20520;-68
2023/09/10 08:13:20;;;;;;;13.90;8.25;;;24.70;80.40;;;;;;5007049;28;20533;-68
2023/09/10 08:15:46;;;;;;;8.52;7.70;;;24.70;80.30;;;;;;5018464;28;20541;-68
2023/09/10 08:18:12;;;;;;;8.52;7.60;;;24.80;80.40;;;;;;5005310;28;20434;-68
2023/09/10 08:20:40;;;;;;;9.38;8.32;;;24.80;80.30;;;;;;5017068;28;20429;-68
2023/09/10 08:23:12;;;;;;;12.43;8.20;;;24.80;80.20;;;;;;5007449;28;20045;-68
2023/09/10 08:25:39;;;;;;;11.18;7.82;;;24.90;80.40;;;;;;5013994;28;20087;-67
2023/09/10 08:28:05;;;;;;;8.20;6.72;;;24.80;80.10;;;;;;5014231;28;20046;-68
2023/09/10 08:30:31;;;;;;;8.93;7.47;;;24.80;80.20;;;;;;5014916;28;21057;-68
2023/09/10 08:32:58;;;;;;;10.70;7.68;;;24.80;80.30;;;;;;5012530;28;20038;-67
2023/09/10 08:35:47;;;;;;;9.10;6.78;;;24.80;80.30;;;;;;5007974;28;20060;-67
2023/09/10 08:38:29;;;;;;;9.93;7.00;;;24.70;80.30;;;;;;5017052;28;20031;-68
2023/09/10 08:40:58;;;;;;;9.93;6.78;;;24.70;80.20;;;;;;5015441;28;20041;-68
2023/09/10 08:43:50;;;;;;;10.40;6.40;;;24.70;80.30;;;;;;5005787;28;20030;-69
2023/09/10 08:46:21;;;;;;;7.47;6.50;;;24.70;80.30;;;;;;5011446;28;20303;-68
2023/09/10 08:48:50;;;;;;;8.55;7.32;;;24.70;80.20;;;;;;5008568;28;20034;-68
2023/09/10 08:51:17;;;;;;;7.60;6.13;;;24.70;80.20;;;;;;5012988;28;20449;-67
2023/09/10 08:53:44;;;;;;;8.65;6.80;;;24.70;80.20;;;;;;5017113;28;20418;-68
2023/09/10 08:56:12;;;;;;;9.90;6.60;;;24.70;80.30;;;;;;5016199;28;20033;-68
2023/09/10 08:58:42;;;;;;;6.43;5.65;;;24.70;80.30;;;;;;5007163;28;20038;-69
2023/09/10 09:01:10;;;;;;;6.70;5.88;;;24.60;80.70;;;;;;5012420;28;20038;-69
2023/09/10 09:03:36;;;;;;;6.82;6.13;;;24.60;80.30;;;;;;5016953;28;20124;-67
2023/09/10 09:06:06;;;;;;;8.23;5.97;;;24.60;80.30;;;;;;5027485;28;20048;-67
2023/09/10 09:08:35;;;;;;;10.60;6.28;;;24.60;80.30;;;;;;5017952;28;20072;-67
2023/09/10 09:11:03;;;;;;;9.30;6.25;;;24.60;80.30;;;;;;5029991;28;20092;-67
2023/09/10 09:13:37;;;;;;;8.27;6.50;;;24.60;80.20;;;;;;5011706;28;20060;-67
2023/09/10 09:16:04;;;;;;;9.90;6.68;;;24.70;80.40;;;;;;5023618;28;20091;-68
2023/09/10 09:18:34;;;;;;;7.75;6.45;;;24.70;80.30;;;;;;5015817;28;20222;-67
2023/09/10 09:21:11;;;;;;;8.43;6.32;;;24.80;80.30;;;;;;5023065;28;20034;-68
2023/09/10 09:23:51;;;;;;;7.05;6.32;;;24.90;80.40;;;;;;5029724;28;20078;-68
2023/09/10 09:26:18;;;;;;;7.55;6.20;;;25.00;80.30;;;;;;5014745;28;20029;-68
2023/09/10 09:28:48;;;;;;;8.43;5.78;;;25.00;80.20;;;;;;5020776;28;20033;-66
2023/09/10 09:31:19;;;;;;;8.07;6.55;;;25.00;80.20;;;;;;5023077;28;20108;-67
2023/09/10 09:33:45;;;;;;;7.40;6.53;;;25.00;80.10;;;;;;5017239;28;20037;-67
2023/09/10 09:36:12;;;;;;;6.80;6.05;;;25.00;80.10;;;;;;5011081;28;20048;-67
2023/09/10 09:38:46;;;;;;;10.25;6.28;;;25.00;80.10;;;;;;5024528;28;20041;-68
2023/09/10 09:41:15;;;;;;;7.97;5.97;;;25.00;80.10;;;;;;5019953;28;20068;-67
2023/09/10 09:43:42;;;;;;;10.82;6.53;;;25.00;80.00;;;;;;5005541;28;20038;-67
2023/09/10 09:46:08;;;;;;;7.95;6.70;;;25.00;80.10;;;;;;5010233;28;20107;-67
2023/09/10 09:48:36;;;;;;;9.68;7.15;;;24.90;80.00;;;;;;5007933;28;20478;-68
2023/09/10 09:51:15;;;;;;;9.18;7.93;;;24.90;80.00;;;;;;5008413;28;20037;-69
2023/09/10 09:53:44;;;;;;;7.50;6.63;;;24.80;80.00;;;;;;5011932;28;20037;-68
2023/09/10 09:56:11;;;;;;;9.65;6.88;;;24.80;80.10;;;;;;5007875;28;20041;-69
2023/09/10 09:58:37;;;;;;;7.93;6.68;;;24.70;80.00;;;;;;5011816;28;20062;-68
2023/09/10 10:01:04;;;;;;;10.48;7.88;;;24.70;80.10;;;;;;5018086;28;20040;-69
2023/09/10 10:03:33;;;;;;;8.23;6.95;;;24.60;80.70;;;;;;5018810;28;20048;-68
2023/09/10 10:06:01;;;;;;;13.68;8.30;;;24.50;80.10;;;;;;5015247;28;20034;-68
2023/09/10 10:08:34;;;;;;;11.15;7.57;;;24.40;80.00;;;;;;5011115;28;20014;-68
2023/09/10 10:11:00;;;;;;;14.70;7.97;;;24.40;80.20;;;;;;5007743;28;20061;-68
2023/09/10 10:13:27;;;;;;;11.02;7.32;;;24.30;80.20;;;;;;5013871;28;20029;-69
2023/09/10 10:15:57;;;;;;;9.40;6.78;;;24.20;80.20;;;;;;5016451;28;20049;-68
2023/09/10 10:18:26;;;;;;;12.80;7.65;;;24.20;80.30;;;;;;5013926;28;20117;-68
2023/09/10 10:20:52;;;;;;;9.52;6.40;;;24.10;80.20;;;;;;5011107;28;20061;-67
2023/09/10 10:23:20;;;;;;;8.80;6.32;;;24.00;80.10;;;;;;5010670;28;20124;-67
2023/09/10 10:25:47;;;;;;;8.02;6.05;;;24.00;80.30;;;;;;5015780;28;20044;-67
2023/09/10 10:28:14;;;;;;;10.05;6.03;;;23.90;80.20;;;;;;5011746;28;20041;-67
2023/09/10 10:30:59;;;;;;;8.75;5.55;;;23.90;80.30;;;;;;5017570;28;20030;-67
2023/09/10 10:33:28;;;;;;;8.43;5.25;;;24.00;80.40;;;;;;5011430;28;20494;-67
2023/09/10 10:36:08;;;;;;;9.85;5.70;;;24.00;80.10;;;;;;5011855;28;20095;-66
2023/09/10 10:38:36;;;;;;;6.25;4.75;;;24.10;80.20;;;;;;5004112;28;20325;-66
2023/09/10 10:41:16;;;;;;;11.65;5.93;;;24.10;80.00;;;;;;5010013;28;20029;-67
2023/09/10 10:43:58;;;;;;;6.25;5.38;;;24.20;79.90;;;;;;5010676;28;20056;-67
2023/09/10 10:46:29;;;;;;;6.95;4.90;;;24.40;80.00;;;;;;5023922;28;20512;-67
2023/09/10 10:48:56;;;;;;;5.38;4.75;;;24.40;79.70;;;;;;5010955;28;20230;-67
2023/09/10 10:51:26;;;;;;;4.82;4.40;;;24.50;79.70;;;;;;5005637;28;20165;-67
2023/09/10 10:53:53;;;;;;;7.60;4.70;;;24.50;79.60;;;;;;5013653;28;20040;-67
2023/09/10 10:56:19;;;;;;;6.80;4.50;;;24.60;79.50;;;;;;5008928;28;20117;-67
2023/09/10 10:58:49;;;;;;;6.63;4.70;;;24.70;79.50;;;;;;5010879;28;20057;-67
2023/09/10 11:01:15;;;;;;;7.18;5.50;;;24.90;79.50;;;;;;5017854;28;20033;-66
2023/09/10 11:03:44;;;;;;;7.65;5.13;;;25.00;79.40;;;;;;5006844;28;20022;-66
2023/09/10 11:06:11;;;;;;;6.72;4.90;;;25.10;79.30;;;;;;5013132;28;20041;-67
2023/09/10 11:08:41;;;;;;;6.38;5.40;;;25.20;79.10;;;;;;5014692;28;20033;-66
2023/09/10 11:11:09;;;;;;;7.15;5.78;;;25.30;79.00;;;;;;5007790;28;20041;-66
2023/09/10 11:14:00;;;;;;;7.32;5.55;;;25.40;79.40;;;;;;5014894;28;20021;-66
2023/09/10 11:16:35;;;;;;;8.32;5.93;;;25.60;78.70;;;;;;5006217;28;20325;-66
2023/09/10 11:19:05;;;;;;;8.93;6.30;;;25.60;78.40;;;;;;5007739;28;20034;-66
2023/09/10 11:21:53;;;;;;;8.95;6.97;;;25.80;78.40;;;;;;5007659;28;20049;-66
2023/09/10 11:24:19;;;;;;;7.82;7.03;;;25.90;78.40;;;;;;5013456;28;20390;-66
2023/09/10 11:26:46;;;;;;;7.60;6.75;;;25.90;78.30;;;;;;5021426;28;20456;-66
2023/09/10 11:29:17;;;;;;;9.60;6.80;;;25.90;78.30;;;;;;5021633;28;20033;-66
2023/09/10 11:31:48;;;;;;;10.00;6.78;;;26.00;78.40;;;;;;5013721;28;20258;-66
2023/09/10 11:34:18;;;;;;;11.57;7.38;;;26.00;78.40;;;;;;5008341;28;20293;-66
2023/09/10 11:36:48;;;;;;;8.40;7.60;;;26.00;78.30;;;;;;5009376;28;20060;-66
2023/09/10 11:39:19;;;;;;;8.10;7.30;;;26.00;78.30;;;;;;5014283;28;20294;-66
2023/09/10 11:41:50;;;;;;;9.88;8.45;;;26.10;78.40;;;;;;5018634;28;20068;-66
2023/09/10 11:44:16;;;;;;;12.82;9.75;;;26.10;78.30;;;;;;5008513;28;20092;-67
2023/09/10 11:46:43;;;;;;;9.45;8.60;;;26.20;78.40;;;;;;5008171;28;20037;-66
2023/09/10 11:49:10;;;;;;;8.60;7.78;;;26.20;78.40;;;;;;5013949;28;20037;-67
2023/09/10 11:51:48;;;;;;;13.35;9.93;;;26.20;78.50;;;;;;5006761;28;20053;-66
2023/09/10 11:54:18;;;;;;;15.23;10.32;;;26.20;78.70;;;;;;5017813;28;20269;-67
2023/09/10 11:56:48;;;;;;;15.68;11.05;;;26.20;78.80;;;;;;5005794;28;20029;-67
2023/09/10 11:59:16;;;;;;;14.80;13.07;;;26.20;78.90;;;;;;5005686;28;20034;-67
2023/09/10 12:01:42;;;;;;;21.02;14.77;;;26.20;78.90;;;;;;5007966;28;20270;-67
2023/09/10 12:04:13;;;;;;;15.45;13.80;;;26.20;79.20;;;;;;5007638;28;20041;-68
2023/09/10 12:06:39;;;;;;;14.32;11.95;;;26.30;79.60;;;;;;5012966;28;20037;-67
2023/09/10 12:09:06;;;;;;;17.08;14.55;;;26.30;79.80;;;;;;5012734;28;20406;-67
2023/09/10 12:11:36;;;;;;;18.58;14.05;;;26.30;80.10;;;;;;5016313;28;21703;-67
2023/09/10 12:14:06;;;;;;;15.85;14.23;;;26.40;80.40;;;;;;5011024;28;20482;-67
2023/09/10 12:16:33;;;;;;;16.27;14.50;;;26.60;80.50;;;;;;5017435;28;20042;-67
2023/09/10 12:18:59;;;;;;;13.95;12.55;;;26.80;80.30;;;;;;5017514;28;20399;-67
2023/09/10 12:21:29;;;;;;;21.88;12.40;;;27.10;80.10;;;;;;5014772;28;20046;-66
2023/09/10 12:23:58;;;;;;;22.27;16.25;;;27.30;79.40;;;;;;5012659;28;20710;-66
2023/09/10 12:26:25;;;;;;;27.20;18.20;;;27.50;78.70;;;;;;5009321;28;20128;-67
2023/09/10 12:28:51;;;;;;;27.60;18.13;;;27.60;78.00;;;;;;5018134;28;20073;-67
2023/09/10 12:31:19;;;;;;;25.63;16.05;;;27.80;77.60;;;;;;5012331;28;20064;-67
2023/09/10 12:33:45;;;;;;;19.08;15.50;;;27.90;77.20;;;;;;5016504;28;20041;-66
2023/09/10 12:36:13;;;;;;;21.10;13.75;;;28.10;76.60;;;;;;5013350;28;20060;-67
2023/09/10 12:38:39;;;;;;;18.88;13.05;;;28.20;76.10;;;;;;5006221;28;20433;-67
2023/09/10 12:41:05;;;;;;;14.80;12.73;;;28.30;75.70;;;;;;5013431;28;20029;-67
2023/09/10 12:43:32;;;;;;;20.42;12.55;;;28.30;75.40;;;;;;5014426;28;20037;-67